Time;durP1;ratioP1;P1;durP2;ratioP2;P2;SDS_P1;SDS_P2;PMS_P1;PMS_P2;Temp;Humidity;BMP_temperature;BMP_pressure;BME280_temperature;BME280_humidity;BME280_pressure;Samples;Min_cycle;Max_cycle;Signal;HPM_P1;HPM_P2
2020/02/09 00:00:56;;;;;;;5.050001;3.35;;;;;;;-1.67;73.4541;95883.76;;;;
2020/02/09 00:02:31;;;;;;;5.750001;3.3;;;;;;;-1.69;73.08691;95875.62;;;;
2020/02/09 00:03:55;;;;;;;5.7;3.4;;;;;;;-1.64;73.47949;95877.78;;;;
2020/02/09 00:10:15;;;;;;;5.7;3.4;;;;;;;-1.64;73.47949;95877.78;;;;
2020/02/09 00:18:08;;;;;;;5.1;3.25;;;;;;;-1.62;73.59766;95893.42;;;;
2020/02/09 00:19:20;;;;;;;5.1;3.25;;;;;;;-1.62;73.59766;95893.42;;;;
2020/02/09 00:21:40;;;;;;;5.1;3.25;;;;;;;-1.62;73.59766;95893.42;;;;
2020/02/09 00:22:58;;;;;;;5.1;3.25;;;;;;;-1.62;73.59766;95893.42;;;;
2020/02/09 00:24:24;;;;;;;5.1;3.25;;;;;;;-1.62;73.59766;95893.42;;;;
2020/02/09 00:25:33;;;;;;;5.1;3.25;;;;;;;-1.62;73.59766;95893.42;;;;
2020/02/09 00:26:52;;;;;;;5.1;3.25;;;;;;;-1.62;73.59766;95893.42;;;;
2020/02/09 00:43:32;;;;;;;4.75;3.4;;;;;;;-1.62;74.0127;95904;;;;
2020/02/09 00:44:40;;;;;;;4.75;3.4;;;;;;;-1.62;74.0127;95904;;;;
2020/02/09 00:46:34;;;;;;;4.75;3.4;;;;;;;-1.62;74.0127;95904;;;;
2020/02/09 00:52:55;;;;;;;4.75;3.4;;;;;;;-1.62;74.0127;95904;;;;
2020/02/09 01:04:41;;;;;;;4.3;3.1;;;;;;;-1.56;74.1377;95902.17;;;;
2020/02/09 01:06:21;;;;;;;4.3;3.1;;;;;;;-1.56;74.1377;95902.17;;;;
2020/02/09 01:07:58;;;;;;;4.750001;3.2;;;;;;;-1.57;73.71973;95908.87;;;;
2020/02/09 01:09:21;;;;;;;4.750001;3.2;;;;;;;-1.57;73.71973;95908.87;;;;
2020/02/09 01:11:29;;;;;;;4.750001;3.2;;;;;;;-1.57;73.71973;95908.87;;;;
2020/02/09 01:12:59;;;;;;;4.750001;3.2;;;;;;;-1.57;73.71973;95908.87;;;;
2020/02/09 01:14:22;;;;;;;4.750001;3.2;;;;;;;-1.57;73.71973;95908.87;;;;
2020/02/09 01:15:41;;;;;;;4.750001;3.2;;;;;;;-1.57;73.71973;95908.87;;;;
2020/02/09 01:17:13;;;;;;;4.750001;3.2;;;;;;;-1.57;73.71973;95908.87;;;;
2020/02/09 01:18:26;;;;;;;3.3;2.55;;;;;;;-1.53;73.48828;95904.97;;;;
2020/02/09 01:19:30;;;;;;;3.3;2.55;;;;;;;-1.53;73.48828;95904.97;;;;
2020/02/09 01:20:33;;;;;;;3.3;2.55;;;;;;;-1.53;73.48828;95904.97;;;;
2020/02/09 01:22:45;;;;;;;3.3;2.55;;;;;;;-1.53;73.48828;95904.97;;;;
2020/02/09 01:23:59;;;;;;;3.3;2.55;;;;;;;-1.53;73.48828;95904.97;;;;
2020/02/09 01:25:22;;;;;;;3.3;2.55;;;;;;;-1.53;73.48828;95904.97;;;;
2020/02/09 01:26:59;;;;;;;3.3;2.55;;;;;;;-1.53;73.48828;95904.97;;;;
2020/02/09 01:28:05;;;;;;;3.3;2.55;;;;;;;-1.53;73.48828;95904.97;;;;
2020/02/09 01:29:09;;;;;;;6.15;2.75;;;;;;;-1.48;73.30957;95911.55;;;;
2020/02/09 01:31:21;;;;;;;3.95;3;;;;;;;-1.41;73.77051;95909.48;;;;
2020/02/09 01:32:30;;;;;;;3.95;3;;;;;;;-1.41;73.77051;95909.48;;;;
2020/02/09 01:34:07;;;;;;;3.95;3;;;;;;;-1.41;73.77051;95909.48;;;;
2020/02/09 01:35:15;;;;;;;3.95;3;;;;;;;-1.41;73.77051;95909.48;;;;
2020/02/09 01:36:55;;;;;;;3.95;3;;;;;;;-1.41;73.77051;95909.48;;;;
2020/02/09 01:38:00;;;;;;;3.95;3;;;;;;;-1.41;73.77051;95909.48;;;;
2020/02/09 01:39:03;;;;;;;3.95;3;;;;;;;-1.41;73.77051;95909.48;;;;
2020/02/09 01:40:36;;;;;;;3.95;3;;;;;;;-1.41;73.77051;95909.48;;;;
2020/02/09 01:41:57;;;;;;;5.299999;2.8;;;;;;;-1.39;73.42871;95913.73;;;;
2020/02/09 01:43:36;;;;;;;5.299999;2.8;;;;;;;-1.39;73.42871;95913.73;;;;
2020/02/09 01:44:40;;;;;;;3.9;2.75;;;;;;;-1.34;73.89453;95909.3;;;;
2020/02/09 01:45:45;;;;;;;3.9;2.75;;;;;;;-1.34;73.89453;95909.3;;;;
2020/02/09 01:47:31;;;;;;;3.9;2.75;;;;;;;-1.34;73.89453;95909.3;;;;
2020/02/09 01:48:32;;;;;;;3.9;2.75;;;;;;;-1.34;73.89453;95909.3;;;;
2020/02/09 01:49:35;;;;;;;3.9;2.75;;;;;;;-1.34;73.89453;95909.3;;;;
2020/02/09 01:53:59;;;;;;;3.9;2.75;;;;;;;-1.34;73.89453;95909.3;;;;
2020/02/09 01:55:00;;;;;;;3.9;2.75;;;;;;;-1.34;73.89453;95909.3;;;;
2020/02/09 01:56:06;;;;;;;3.9;2.75;;;;;;;-1.34;73.89453;95909.3;;;;
2020/02/09 01:57:13;;;;;;;3.9;2.75;;;;;;;-1.34;73.89453;95909.3;;;;
2020/02/09 01:58:16;;;;;;;3.9;2.75;;;;;;;-1.34;73.89453;95909.3;;;;
2020/02/09 01:59:25;;;;;;;3.9;2.75;;;;;;;-1.34;73.89453;95909.3;;;;
2020/02/09 02:00:38;;;;;;;3.9;2.75;;;;;;;-1.34;73.89453;95909.3;;;;
2020/02/09 02:02:55;;;;;;;3.9;2.75;;;;;;;-1.34;73.89453;95909.3;;;;
2020/02/09 02:04:14;;;;;;;3.9;2.75;;;;;;;-1.34;73.89453;95909.3;;;;
2020/02/09 02:08:31;;;;;;;4.3;2.9;;;;;;;-1.42;73.12305;95895.89;;;;
2020/02/09 02:09:58;;;;;;;4.3;2.9;;;;;;;-1.42;73.12305;95895.89;;;;
2020/02/09 02:11:04;;;;;;;4.3;2.9;;;;;;;-1.42;73.12305;95895.89;;;;
2020/02/09 02:15:05;;;;;;;4.3;2.9;;;;;;;-1.42;73.12305;95895.89;;;;
2020/02/09 02:16:37;;;;;;;4.799999;3.45;;;;;;;-1.63;73.00293;95899.28;;;;
2020/02/09 02:17:54;;;;;;;4.799999;3.45;;;;;;;-1.63;73.00293;95899.28;;;;
2020/02/09 02:19:44;;;;;;;4.799999;3.45;;;;;;;-1.63;73.00293;95899.28;;;;
2020/02/09 02:20:53;;;;;;;4.799999;3.45;;;;;;;-1.63;73.00293;95899.28;;;;
2020/02/09 02:21:58;;;;;;;4.799999;3.45;;;;;;;-1.63;73.00293;95899.28;;;;
2020/02/09 02:23:05;;;;;;;4.799999;3.45;;;;;;;-1.63;73.00293;95899.28;;;;
2020/02/09 02:24:29;;;;;;;4.799999;3.45;;;;;;;-1.63;73.00293;95899.28;;;;
2020/02/09 02:25:53;;;;;;;4.799999;3.45;;;;;;;-1.63;73.00293;95899.28;;;;
2020/02/09 02:27:02;;;;;;;4.45;3.25;;;;;;;-1.73;73.13086;95903.38;;;;
2020/02/09 02:28:06;;;;;;;4.45;3.25;;;;;;;-1.73;73.13086;95903.38;;;;
2020/02/09 02:29:12;;;;;;;4.45;3.25;;;;;;;-1.73;73.13086;95903.38;;;;
2020/02/09 02:30:24;;;;;;;4.45;3.25;;;;;;;-1.73;73.13086;95903.38;;;;
2020/02/09 02:35:48;;;;;;;4.45;3.25;;;;;;;-1.73;73.13086;95903.38;;;;
2020/02/09 02:36:54;;;;;;;4.45;3.25;;;;;;;-1.73;73.13086;95903.38;;;;
2020/02/09 02:38:01;;;;;;;4.65;3.2;;;;;;;-1.89;73.00977;95895.65;;;;
2020/02/09 02:39:06;;;;;;;4.65;3.2;;;;;;;-1.89;73.00977;95895.65;;;;
2020/02/09 02:40:40;;;;;;;6.300001;3.45;;;;;;;-1.85;73.63086;95894.36;;;;
2020/02/09 02:42:03;;;;;;;6.300001;3.45;;;;;;;-1.85;73.63086;95894.36;;;;
2020/02/09 02:43:11;;;;;;;6.300001;3.45;;;;;;;-1.85;73.63086;95894.36;;;;
2020/02/09 02:44:19;;;;;;;6.300001;3.45;;;;;;;-1.85;73.63086;95894.36;;;;
2020/02/09 02:47:23;;;;;;;6.300001;3.45;;;;;;;-1.85;73.63086;95894.36;;;;
2020/02/09 02:48:50;;;;;;;6.300001;3.45;;;;;;;-1.85;73.63086;95894.36;;;;
2020/02/09 02:50:10;;;;;;;6.300001;3.45;;;;;;;-1.85;73.63086;95894.36;;;;
2020/02/09 02:51:17;;;;;;;5;3.25;;;;;;;-1.92;73.55566;95888.89;;;;
2020/02/09 02:52:39;;;;;;;5;3.25;;;;;;;-1.92;73.55566;95888.89;;;;
2020/02/09 02:59:19;;;;;;;5;3.25;;;;;;;-1.92;73.55566;95888.89;;;;
2020/02/09 03:00:26;;;;;;;5;3.25;;;;;;;-1.92;73.55566;95888.89;;;;
2020/02/09 03:05:07;;;;;;;5.900001;2.8;;;;;;;-1.93;73.25391;95881.46;;;;
2020/02/09 03:06:47;;;;;;;5.900001;2.8;;;;;;;-1.93;73.25391;95881.46;;;;
2020/02/09 03:07:55;;;;;;;5.900001;2.8;;;;;;;-1.93;73.25391;95881.46;;;;
2020/02/09 03:08:59;;;;;;;5.900001;2.8;;;;;;;-1.93;73.25391;95881.46;;;;
2020/02/09 03:10:00;;;;;;;5.900001;2.8;;;;;;;-1.93;73.25391;95881.46;;;;
2020/02/09 03:11:06;;;;;;;5.900001;2.8;;;;;;;-1.93;73.25391;95881.46;;;;
2020/02/09 03:12:09;;;;;;;4.3;2.55;;;;;;;-2.05;73.06445;95885.25;;;;
2020/02/09 03:13:22;;;;;;;4.3;2.55;;;;;;;-2.05;73.06445;95885.25;;;;
2020/02/09 03:14:39;;;;;;;4.3;2.55;;;;;;;-2.05;73.06445;95885.25;;;;
2020/02/09 03:15:56;;;;;;;4.3;2.55;;;;;;;-2.05;73.06445;95885.25;;;;
2020/02/09 03:17:17;;;;;;;4.3;2.55;;;;;;;-2.05;73.06445;95885.25;;;;
2020/02/09 03:18:37;;;;;;;4.3;2.55;;;;;;;-2.05;73.06445;95885.25;;;;
2020/02/09 03:19:58;;;;;;;4.3;2.55;;;;;;;-2.05;73.06445;95885.25;;;;
2020/02/09 03:21:19;;;;;;;4.3;2.55;;;;;;;-2.05;73.06445;95885.25;;;;
2020/02/09 03:22:57;;;;;;;4;2.55;;;;;;;-2.07;72.95801;95889.45;;;;
2020/02/09 03:24:16;;;;;;;4;2.55;;;;;;;-2.07;72.95801;95889.45;;;;
2020/02/09 03:25:35;;;;;;;4;2.55;;;;;;;-2.07;72.95801;95889.45;;;;
2020/02/09 03:27:06;;;;;;;4;2.55;;;;;;;-2.07;72.95801;95889.45;;;;
2020/02/09 03:29:41;;;;;;;4;2.55;;;;;;;-2.07;72.95801;95889.45;;;;
2020/02/09 03:30:48;;;;;;;4;2.55;;;;;;;-2.07;72.95801;95889.45;;;;
2020/02/09 03:31:57;;;;;;;4;2.55;;;;;;;-2.07;72.95801;95889.45;;;;
2020/02/09 03:33:10;;;;;;;4;2.55;;;;;;;-2.07;72.95801;95889.45;;;;
2020/02/09 03:34:38;;;;;;;4.5;2.75;;;;;;;-2.14;72.80078;95897.2;;;;
2020/02/09 03:35:44;;;;;;;4.5;2.75;;;;;;;-2.14;72.80078;95897.2;;;;
2020/02/09 03:37:05;;;;;;;4.5;2.75;;;;;;;-2.14;72.80078;95897.2;;;;
2020/02/09 03:38:05;;;;;;;4.5;2.75;;;;;;;-2.14;72.80078;95897.2;;;;
2020/02/09 03:39:06;;;;;;;4.5;2.75;;;;;;;-2.14;72.80078;95897.2;;;;
2020/02/09 03:41:34;;;;;;;4.5;2.75;;;;;;;-2.14;72.80078;95897.2;;;;
2020/02/09 03:47:56;;;;;;;3.7;2.5;;;;;;;-2.01;72.91699;95888.86;;;;
2020/02/09 03:49:10;;;;;;;3.7;2.5;;;;;;;-2.01;72.91699;95888.86;;;;
2020/02/09 03:50:21;;;;;;;3.7;2.5;;;;;;;-2.01;72.91699;95888.86;;;;
2020/02/09 03:51:41;;;;;;;3.7;2.5;;;;;;;-2.01;72.91699;95888.86;;;;
2020/02/09 03:52:56;;;;;;;3.7;2.5;;;;;;;-2.01;72.91699;95888.86;;;;
2020/02/09 03:54:03;;;;;;;3.7;2.5;;;;;;;-2.01;72.91699;95888.86;;;;
2020/02/09 03:55:21;;;;;;;2.7;2;;;;;;;-1.97;72.76758;95893.31;;;;
2020/02/09 03:56:31;;;;;;;2.7;2;;;;;;;-1.97;72.76758;95893.31;;;;
2020/02/09 03:57:42;;;;;;;4.649999;2.55;;;;;;;-1.9;73.20703;95887.36;;;;
2020/02/09 03:59:06;;;;;;;4.649999;2.55;;;;;;;-1.9;73.20703;95887.36;;;;
2020/02/09 04:00:14;;;;;;;4.649999;2.55;;;;;;;-1.9;73.20703;95887.36;;;;
2020/02/09 04:01:52;;;;;;;4.649999;2.55;;;;;;;-1.9;73.20703;95887.36;;;;
2020/02/09 04:03:10;;;;;;;4.649999;2.55;;;;;;;-1.9;73.20703;95887.36;;;;
2020/02/09 04:05:19;;;;;;;4.649999;2.55;;;;;;;-1.9;73.20703;95887.36;;;;
2020/02/09 04:06:40;;;;;;;4.649999;2.55;;;;;;;-1.9;73.20703;95887.36;;;;
2020/02/09 04:07:50;;;;;;;4.649999;2.55;;;;;;;-1.9;73.20703;95887.36;;;;
2020/02/09 04:10:05;;;;;;;3.3;2.2;;;;;;;-1.82;72.95801;95890.6;;;;
2020/02/09 04:11:51;;;;;;;3.3;2.2;;;;;;;-1.82;72.95801;95890.6;;;;
2020/02/09 04:13:01;;;;;;;3.3;2.2;;;;;;;-1.82;72.95801;95890.6;;;;
2020/02/09 04:14:03;;;;;;;3.3;2.2;;;;;;;-1.82;72.95801;95890.6;;;;
2020/02/09 04:15:15;;;;;;;3.3;2.2;;;;;;;-1.82;72.95801;95890.6;;;;
2020/02/09 04:16:56;;;;;;;3.3;2.2;;;;;;;-1.82;72.95801;95890.6;;;;
2020/02/09 04:18:04;;;;;;;3.3;2.2;;;;;;;-1.82;72.95801;95890.6;;;;
2020/02/09 04:24:26;;;;;;;3.9;2.2;;;;;;;-1.79;72.80859;95884.53;;;;
2020/02/09 04:25:30;;;;;;;3.9;2.2;;;;;;;-1.79;72.80859;95884.53;;;;
2020/02/09 04:26:31;;;;;;;3.9;2.2;;;;;;;-1.79;72.80859;95884.53;;;;
2020/02/09 04:27:32;;;;;;;3.9;2.2;;;;;;;-1.79;72.80859;95884.53;;;;
2020/02/09 04:28:32;;;;;;;3.9;2.2;;;;;;;-1.79;72.80859;95884.53;;;;
2020/02/09 04:29:33;;;;;;;4.3;2.5;;;;;;;-1.83;72.80273;95887.11;;;;
2020/02/09 04:30:33;;;;;;;4.3;2.5;;;;;;;-1.83;72.80273;95887.11;;;;
2020/02/09 04:31:34;;;;;;;4.3;2.5;;;;;;;-1.83;72.80273;95887.11;;;;
2020/02/09 04:32:35;;;;;;;4.3;2.5;;;;;;;-1.83;72.80273;95887.11;;;;
2020/02/09 04:33:37;;;;;;;4.3;2.5;;;;;;;-1.83;72.80273;95887.11;;;;
2020/02/09 04:34:37;;;;;;;4.3;2.5;;;;;;;-1.83;72.80273;95887.11;;;;
2020/02/09 04:35:39;;;;;;;4.3;2.5;;;;;;;-1.83;72.80273;95887.11;;;;
2020/02/09 04:36:40;;;;;;;4.3;2.5;;;;;;;-1.83;72.80273;95887.11;;;;
2020/02/09 04:37:43;;;;;;;4.3;2.5;;;;;;;-1.83;72.80273;95887.11;;;;
2020/02/09 04:38:47;;;;;;;4.3;2.5;;;;;;;-1.83;72.80273;95887.11;;;;
2020/02/09 04:39:47;;;;;;;3.9;2.05;;;;;;;-1.77;72.74121;95900.2;;;;
2020/02/09 04:40:48;;;;;;;3.9;2.05;;;;;;;-1.77;72.74121;95900.2;;;;
2020/02/09 04:41:48;;;;;;;3.9;2.05;;;;;;;-1.77;72.74121;95900.2;;;;
2020/02/09 04:42:49;;;;;;;3.9;2.05;;;;;;;-1.77;72.74121;95900.2;;;;
2020/02/09 04:43:49;;;;;;;3.9;2.05;;;;;;;-1.77;72.74121;95900.2;;;;
2020/02/09 04:44:49;;;;;;;3.9;2.05;;;;;;;-1.77;72.74121;95900.2;;;;
2020/02/09 04:45:52;;;;;;;3.9;2.05;;;;;;;-1.77;72.74121;95900.2;;;;
2020/02/09 04:46:52;;;;;;;3.9;2.05;;;;;;;-1.77;72.74121;95900.2;;;;
2020/02/09 04:47:53;;;;;;;3.9;2.05;;;;;;;-1.77;72.74121;95900.2;;;;
2020/02/09 04:48:53;;;;;;;3.9;2.05;;;;;;;-1.77;72.74121;95900.2;;;;
2020/02/09 04:49:54;;;;;;;3.9;2.05;;;;;;;-1.77;72.74121;95900.2;;;;
2020/02/09 04:50:54;;;;;;;3.25;2.45;;;;;;;-1.82;72.70996;95891.44;;;;
2020/02/09 04:51:55;;;;;;;3.25;2.45;;;;;;;-1.82;72.70996;95891.44;;;;
2020/02/09 04:52:56;;;;;;;3.25;2.45;;;;;;;-1.82;72.70996;95891.44;;;;
2020/02/09 04:53:56;;;;;;;3.25;2.45;;;;;;;-1.82;72.70996;95891.44;;;;
2020/02/09 04:54:57;;;;;;;3.25;2.45;;;;;;;-1.82;72.70996;95891.44;;;;
2020/02/09 04:55:57;;;;;;;3.25;2.45;;;;;;;-1.82;72.70996;95891.44;;;;
2020/02/09 04:56:58;;;;;;;3.25;2.45;;;;;;;-1.82;72.70996;95891.44;;;;
2020/02/09 04:57:58;;;;;;;3.25;2.45;;;;;;;-1.82;72.70996;95891.44;;;;
2020/02/09 04:58:59;;;;;;;3.25;2.45;;;;;;;-1.82;72.70996;95891.44;;;;
2020/02/09 04:59:59;;;;;;;3.25;2.45;;;;;;;-1.82;72.70996;95891.44;;;;
2020/02/09 05:01:00;;;;;;;4.85;2.35;;;;;;;-1.78;72.74805;95885.8;;;;
2020/02/09 05:02:04;;;;;;;4.85;2.35;;;;;;;-1.78;72.74805;95885.8;;;;
2020/02/09 05:03:04;;;;;;;4.85;2.35;;;;;;;-1.78;72.74805;95885.8;;;;
2020/02/09 05:04:05;;;;;;;4.85;2.35;;;;;;;-1.78;72.74805;95885.8;;;;
2020/02/09 05:05:05;;;;;;;4.85;2.35;;;;;;;-1.78;72.74805;95885.8;;;;
2020/02/09 05:06:06;;;;;;;4.85;2.35;;;;;;;-1.78;72.74805;95885.8;;;;
2020/02/09 05:07:07;;;;;;;4.85;2.35;;;;;;;-1.78;72.74805;95885.8;;;;
2020/02/09 05:08:08;;;;;;;4.85;2.35;;;;;;;-1.78;72.74805;95885.8;;;;
2020/02/09 05:09:08;;;;;;;4.85;2.35;;;;;;;-1.78;72.74805;95885.8;;;;
2020/02/09 05:10:10;;;;;;;4.85;2.35;;;;;;;-1.78;72.74805;95885.8;;;;
2020/02/09 05:11:10;;;;;;;4.85;2.35;;;;;;;-1.78;72.74805;95885.8;;;;
2020/02/09 05:12:27;;;;;;;3.65;2.55;;;;;;;-1.86;72.70215;95878.64;;;;
2020/02/09 05:13:27;;;;;;;3.65;2.55;;;;;;;-1.86;72.70215;95878.64;;;;
2020/02/09 05:14:28;;;;;;;3.65;2.55;;;;;;;-1.86;72.70215;95878.64;;;;
2020/02/09 05:20:42;;;;;;;3.65;2.55;;;;;;;-1.86;72.70215;95878.64;;;;
2020/02/09 05:21:43;;;;;;;3.65;2.55;;;;;;;-1.86;72.70215;95878.64;;;;
2020/02/09 05:22:44;;;;;;;3.9;2.4;;;;;;;-1.88;72.83398;95883.65;;;;
2020/02/09 05:23:44;;;;;;;3.9;2.4;;;;;;;-1.88;72.83398;95883.65;;;;
2020/02/09 05:24:45;;;;;;;3.9;2.4;;;;;;;-1.88;72.83398;95883.65;;;;
2020/02/09 05:25:46;;;;;;;3.9;2.4;;;;;;;-1.88;72.83398;95883.65;;;;
2020/02/09 05:26:47;;;;;;;3.9;2.4;;;;;;;-1.88;72.83398;95883.65;;;;
2020/02/09 05:27:47;;;;;;;3.9;2.4;;;;;;;-1.88;72.83398;95883.65;;;;
2020/02/09 05:28:49;;;;;;;3.9;2.4;;;;;;;-1.88;72.83398;95883.65;;;;
2020/02/09 05:29:50;;;;;;;3.9;2.4;;;;;;;-1.88;72.83398;95883.65;;;;
2020/02/09 05:30:50;;;;;;;3.9;2.4;;;;;;;-1.88;72.83398;95883.65;;;;
2020/02/09 05:31:51;;;;;;;3.9;2.4;;;;;;;-1.88;72.83398;95883.65;;;;
2020/02/09 05:32:51;;;;;;;4.6;2.5;;;;;;;-1.97;72.90234;95891.56;;;;
2020/02/09 05:33:51;;;;;;;4.6;2.5;;;;;;;-1.97;72.90234;95891.56;;;;
2020/02/09 05:34:52;;;;;;;4.6;2.5;;;;;;;-1.97;72.90234;95891.56;;;;
2020/02/09 05:35:52;;;;;;;4.6;2.5;;;;;;;-1.97;72.90234;95891.56;;;;
2020/02/09 05:36:53;;;;;;;4.6;2.5;;;;;;;-1.97;72.90234;95891.56;;;;
2020/02/09 05:37:53;;;;;;;4.6;2.5;;;;;;;-1.97;72.90234;95891.56;;;;
2020/02/09 05:38:54;;;;;;;4.6;2.5;;;;;;;-1.97;72.90234;95891.56;;;;
2020/02/09 05:39:54;;;;;;;4.6;2.5;;;;;;;-1.97;72.90234;95891.56;;;;
2020/02/09 05:40:54;;;;;;;4.6;2.5;;;;;;;-1.97;72.90234;95891.56;;;;
2020/02/09 05:41:55;;;;;;;4.6;2.5;;;;;;;-1.97;72.90234;95891.56;;;;
2020/02/09 05:42:55;;;;;;;4.6;2.5;;;;;;;-1.97;72.90234;95891.56;;;;
2020/02/09 05:43:56;;;;;;;4.8;2.45;;;;;;;-1.94;72.95996;95865.23;;;;
2020/02/09 05:44:56;;;;;;;4.8;2.45;;;;;;;-1.94;72.95996;95865.23;;;;
2020/02/09 05:45:57;;;;;;;4.8;2.45;;;;;;;-1.94;72.95996;95865.23;;;;
2020/02/09 05:46:57;;;;;;;4.8;2.45;;;;;;;-1.94;72.95996;95865.23;;;;
2020/02/09 05:47:58;;;;;;;4.8;2.45;;;;;;;-1.94;72.95996;95865.23;;;;
2020/02/09 05:48:58;;;;;;;4.8;2.45;;;;;;;-1.94;72.95996;95865.23;;;;
2020/02/09 05:49:59;;;;;;;4.8;2.45;;;;;;;-1.94;72.95996;95865.23;;;;
2020/02/09 05:50:59;;;;;;;4.8;2.45;;;;;;;-1.94;72.95996;95865.23;;;;
2020/02/09 05:52:00;;;;;;;4.8;2.45;;;;;;;-1.94;72.95996;95865.23;;;;
2020/02/09 05:59:24;;;;;;;3.3;2.4;;;;;;;-1.99;72.9707;95867.55;;;;
2020/02/09 06:00:33;;;;;;;3.3;2.4;;;;;;;-1.99;72.9707;95867.55;;;;
2020/02/09 06:01:41;;;;;;;3.3;2.4;;;;;;;-1.99;72.9707;95867.55;;;;
2020/02/09 06:02:47;;;;;;;3.3;2.4;;;;;;;-1.99;72.9707;95867.55;;;;
2020/02/09 06:03:53;;;;;;;3.3;2.4;;;;;;;-1.99;72.9707;95867.55;;;;
2020/02/09 06:05:01;;;;;;;3.3;2.35;;;;;;;-1.97;73.0791;95857.17;;;;
2020/02/09 06:06:10;;;;;;;3.3;2.35;;;;;;;-1.97;73.0791;95857.17;;;;
2020/02/09 06:07:16;;;;;;;3.3;2.35;;;;;;;-1.97;73.0791;95857.17;;;;
2020/02/09 06:08:22;;;;;;;3.3;2.35;;;;;;;-1.97;73.0791;95857.17;;;;
2020/02/09 06:09:32;;;;;;;3.3;2.35;;;;;;;-1.97;73.0791;95857.17;;;;
2020/02/09 06:10:50;;;;;;;3.3;2.35;;;;;;;-1.97;73.0791;95857.17;;;;
2020/02/09 06:12:27;;;;;;;3.3;2.35;;;;;;;-1.97;73.0791;95857.17;;;;
2020/02/09 06:14:35;;;;;;;3.3;2.35;;;;;;;-1.97;73.0791;95857.17;;;;
2020/02/09 06:15:43;;;;;;;6.2;3.15;;;;;;;-2;73.125;95864.98;;;;
2020/02/09 06:16:53;;;;;;;6.2;3.15;;;;;;;-2;73.125;95864.98;;;;
2020/02/09 06:18:12;;;;;;;6.2;3.15;;;;;;;-2;73.125;95864.98;;;;
2020/02/09 06:19:20;;;;;;;6.2;3.15;;;;;;;-2;73.125;95864.98;;;;
2020/02/09 06:20:32;;;;;;;6.2;3.15;;;;;;;-2;73.125;95864.98;;;;
2020/02/09 06:21:47;;;;;;;6.2;3.15;;;;;;;-2;73.125;95864.98;;;;
2020/02/09 06:28:08;;;;;;;4.5;2.3;;;;;;;-1.88;73.375;95859.84;;;;
2020/02/09 06:29:16;;;;;;;4.5;2.3;;;;;;;-1.88;73.375;95859.84;;;;
2020/02/09 06:30:27;;;;;;;4.5;2.3;;;;;;;-1.88;73.375;95859.84;;;;
2020/02/09 06:31:49;;;;;;;4.5;2.3;;;;;;;-1.88;73.375;95859.84;;;;
2020/02/09 06:33:34;;;;;;;4.5;2.3;;;;;;;-1.88;73.375;95859.84;;;;
2020/02/09 06:34:52;;;;;;;4.5;2.3;;;;;;;-1.88;73.375;95859.84;;;;
2020/02/09 06:36:05;;;;;;;4.5;2.3;;;;;;;-1.88;73.375;95859.84;;;;
2020/02/09 06:37:15;;;;;;;4;1.95;;;;;;;-1.6;73.40234;95852.66;;;;
2020/02/09 06:38:24;;;;;;;4;1.95;;;;;;;-1.6;73.40234;95852.66;;;;
2020/02/09 06:39:37;;;;;;;4;1.95;;;;;;;-1.6;73.40234;95852.66;;;;
2020/02/09 06:40:45;;;;;;;4;1.95;;;;;;;-1.6;73.40234;95852.66;;;;
2020/02/09 06:43:12;;;;;;;4;1.95;;;;;;;-1.6;73.40234;95852.66;;;;
2020/02/09 06:44:25;;;;;;;4;1.95;;;;;;;-1.6;73.40234;95852.66;;;;
2020/02/09 06:45:33;;;;;;;4;1.95;;;;;;;-1.6;73.40234;95852.66;;;;
2020/02/09 06:46:43;;;;;;;4;1.95;;;;;;;-1.6;73.40234;95852.66;;;;
2020/02/09 06:48:05;;;;;;;3.7;1.7;;;;;;;-1.29;73.14453;95843.89;;;;
2020/02/09 06:49:12;;;;;;;3.7;1.7;;;;;;;-1.29;73.14453;95843.89;;;;
2020/02/09 06:55:33;;;;;;;3.7;1.7;;;;;;;-1.29;73.14453;95843.89;;;;
2020/02/09 06:56:41;;;;;;;3.7;1.7;;;;;;;-1.29;73.14453;95843.89;;;;
2020/02/09 07:08:34;;;;;;;2.35;1.65;;;;;;;-1.1;73.0625;95838.47;;;;
2020/02/09 07:09:45;;;;;;;2.3;1.65;;;;;;;-0.67;73.37695;95836.35;;;;
2020/02/09 07:10:55;;;;;;;2.3;1.65;;;;;;;-0.67;73.37695;95836.35;;;;
2020/02/09 07:12:13;;;;;;;2.3;1.65;;;;;;;-0.67;73.37695;95836.35;;;;
2020/02/09 07:13:22;;;;;;;2.3;1.65;;;;;;;-0.67;73.37695;95836.35;;;;
2020/02/09 07:14:33;;;;;;;2.3;1.65;;;;;;;-0.67;73.37695;95836.35;;;;
2020/02/09 07:15:43;;;;;;;2.3;1.65;;;;;;;-0.67;73.37695;95836.35;;;;
2020/02/09 07:22:02;;;;;;;1.9;1.6;;;;;;;-0.38;72.9248;95845.75;;;;
2020/02/09 07:23:15;;;;;;;1.9;1.6;;;;;;;-0.38;72.9248;95845.75;;;;
2020/02/09 07:24:42;;;;;;;1.9;1.6;;;;;;;-0.38;72.9248;95845.75;;;;
2020/02/09 07:26:00;;;;;;;1.9;1.6;;;;;;;-0.38;72.9248;95845.75;;;;
2020/02/09 07:27:12;;;;;;;1.9;1.6;;;;;;;-0.38;72.9248;95845.75;;;;
2020/02/09 07:28:23;;;;;;;1.9;1.6;;;;;;;-0.38;72.9248;95845.75;;;;
2020/02/09 07:30:37;;;;;;;1.9;1.6;;;;;;;-0.38;72.9248;95845.75;;;;
2020/02/09 07:37:37;;;;;;;3.05;1.6;;;;;;;-0.08;72.71484;95843.95;;;;
2020/02/09 07:38:47;;;;;;;3.05;1.6;;;;;;;-0.08;72.71484;95843.95;;;;
2020/02/09 07:40:02;;;;;;;3.05;1.6;;;;;;;-0.08;72.71484;95843.95;;;;
2020/02/09 07:41:13;;;;;;;2.8;1.6;;;;;;;0.24;72.32227;95827.69;;;;
2020/02/09 07:43:00;;;;;;;2.8;1.6;;;;;;;0.24;72.32227;95827.69;;;;
2020/02/09 07:49:40;;;;;;;2.8;1.6;;;;;;;0.24;72.32227;95827.69;;;;
2020/02/09 07:50:49;;;;;;;2.45;1.85;;;;;;;0.74;71.98828;95821.45;;;;
2020/02/09 07:51:57;;;;;;;2.45;1.85;;;;;;;0.74;71.98828;95821.45;;;;
2020/02/09 07:54:14;;;;;;;2.45;1.85;;;;;;;0.74;71.98828;95821.45;;;;
2020/02/09 07:55:24;;;;;;;2.55;1.9;;;;;;;1.12;72.10449;95816.44;;;;
2020/02/09 07:57:59;;;;;;;4.1;2.2;;;;;;;1.77;71.46875;95818.56;;;;
2020/02/09 07:59:08;;;;;;;3.7;2.2;;;;;;;2.55;70.35742;95810.58;;;;
2020/02/09 08:00:18;;;;;;;3.7;2.2;;;;;;;2.55;70.35742;95810.58;;;;
2020/02/09 08:12:42;;;;;;;3.1;2.1;;;;;;;6.13;64.16602;95820.61;;;;
2020/02/09 08:14:04;;;;;;;3.5;2.05;;;;;;;6.78;63.05859;95818.45;;;;
2020/02/09 08:15:14;;;;;;;3.25;2.3;;;;;;;7.42;62.12793;95822.89;;;;
2020/02/09 08:16:54;;;;;;;3.25;2.3;;;;;;;7.42;62.12793;95822.89;;;;
2020/02/09 08:18:04;;;;;;;5.95;2.6;;;;;;;8.31;60.70703;95826;;;;
2020/02/09 08:19:31;;;;;;;5.95;2.6;;;;;;;8.31;60.70703;95826;;;;
2020/02/09 08:20:56;;;;;;;3;2.3;;;;;;;9.56;58.5127;95817.78;;;;
2020/02/09 08:22:37;;;;;;;3;2.3;;;;;;;9.56;58.5127;95817.78;;;;
2020/02/09 08:24:12;;;;;;;5.15;2.45;;;;;;;10.98;55.99121;95818.55;;;;
2020/02/09 08:25:21;;;;;;;5.15;2.45;;;;;;;10.98;55.99121;95818.55;;;;
2020/02/09 08:26:29;;;;;;;2.85;2.55;;;;;;;12.44;53.28223;95828.37;;;;
2020/02/09 08:28:09;;;;;;;2.85;2.55;;;;;;;12.44;53.28223;95828.37;;;;
2020/02/09 08:29:17;;;;;;;4.8;2.5;;;;;;;13.85;50.99902;95818.42;;;;
2020/02/09 08:35:56;;;;;;;3.85;2.55;;;;;;;16.22;46.99414;95822.17;;;;
2020/02/09 08:37:11;;;;;;;3.5;2.2;;;;;;;17.29;45.07031;95812.25;;;;
2020/02/09 08:38:35;;;;;;;3.5;2.2;;;;;;;17.29;45.07031;95812.25;;;;
2020/02/09 08:39:56;;;;;;;4.5;2.5;;;;;;;18.22;43.08789;95815.38;;;;
2020/02/09 08:41:29;;;;;;;2.9;2.55;;;;;;;19.06;41.39648;95813.92;;;;
2020/02/09 08:42:55;;;;;;;2.9;2.55;;;;;;;19.06;41.39648;95813.92;;;;
2020/02/09 08:44:15;;;;;;;3.6;2.2;;;;;;;19.93;40.08594;95817.54;;;;
2020/02/09 09:07:27;;;;;;;2.8;1.95;;;;;;;24.1;31.86914;95815.52;;;;
2020/02/09 09:08:29;;;;;;;3.9;2;;;;;;;25.06;30.32422;95812.79;;;;
2020/02/09 09:09:29;;;;;;;3.9;2;;;;;;;25.06;30.32422;95812.79;;;;
2020/02/09 09:10:34;;;;;;;3.9;2;;;;;;;25.06;30.32422;95812.79;;;;
2020/02/09 09:11:35;;;;;;;1.85;1.7;;;;;;;25.45;29.44238;95809.32;;;;
2020/02/09 09:12:35;;;;;;;1.85;1.7;;;;;;;25.45;29.44238;95809.32;;;;
2020/02/09 09:13:40;;;;;;;2.2;1.8;;;;;;;25.81;28.5459;95806.25;;;;
2020/02/09 09:14:40;;;;;;;2.2;1.8;;;;;;;25.81;28.5459;95806.25;;;;
2020/02/09 09:15:42;;;;;;;2.2;1.8;;;;;;;25.81;28.5459;95806.25;;;;
2020/02/09 09:16:42;;;;;;;2.6;2.05;;;;;;;26.24;27.98926;95809.05;;;;
2020/02/09 09:18:05;;;;;;;2.6;2.05;;;;;;;26.24;27.98926;95809.05;;;;
2020/02/09 09:19:17;;;;;;;2.45;1.9;;;;;;;26.72;27.36523;95808.57;;;;
2020/02/09 09:20:17;;;;;;;2.45;1.9;;;;;;;26.72;27.36523;95808.57;;;;
2020/02/09 09:21:57;;;;;;;2.7;2.1;;;;;;;27.19;26.70703;95802.6;;;;
2020/02/09 09:22:58;;;;;;;2.7;2.1;;;;;;;27.19;26.70703;95802.6;;;;
2020/02/09 09:24:01;;;;;;;2.7;2.1;;;;;;;27.19;26.70703;95802.6;;;;
2020/02/09 09:25:01;;;;;;;3.65;2.1;;;;;;;27.6;25.95313;95808.42;;;;
2020/02/09 09:26:02;;;;;;;3.65;2.1;;;;;;;27.6;25.95313;95808.42;;;;
2020/02/09 09:27:04;;;;;;;3.1;2.2;;;;;;;27.94;25.41895;95808.75;;;;
2020/02/09 09:28:05;;;;;;;3.1;2.2;;;;;;;27.94;25.41895;95808.75;;;;
2020/02/09 09:29:05;;;;;;;3.1;2.2;;;;;;;27.94;25.41895;95808.75;;;;
2020/02/09 09:30:06;;;;;;;2.3;1.9;;;;;;;28.23;24.78027;95812.95;;;;
2020/02/09 09:31:07;;;;;;;2.3;1.9;;;;;;;28.23;24.78027;95812.95;;;;
2020/02/09 09:32:10;;;;;;;2.1;1.8;;;;;;;28.05;24.48828;95818.34;;;;
2020/02/09 09:34:19;;;;;;;2.1;1.8;;;;;;;28.05;24.48828;95818.34;;;;
2020/02/09 09:35:20;;;;;;;2.7;1.75;;;;;;;27.44;24.64648;95814.26;;;;
2020/02/09 09:36:22;;;;;;;2.7;1.75;;;;;;;27.44;24.64648;95814.26;;;;
2020/02/09 09:37:23;;;;;;;2.6;1.9;;;;;;;26.67;24.65039;95810.91;;;;
2020/02/09 09:38:23;;;;;;;2.6;1.9;;;;;;;26.67;24.65039;95810.91;;;;
2020/02/09 09:39:24;;;;;;;2.6;1.9;;;;;;;26.67;24.65039;95810.91;;;;
2020/02/09 09:40:27;;;;;;;2.1;1.7;;;;;;;25.62;24.98535;95793.63;;;;
2020/02/09 09:41:27;;;;;;;2.1;1.7;;;;;;;25.62;24.98535;95793.63;;;;
2020/02/09 09:47:41;;;;;;;1.75;1.6;;;;;;;23.53;25.91992;95790.31;;;;
2020/02/09 09:48:42;;;;;;;2.65;1.8;;;;;;;22.48;26.71777;95784.06;;;;
2020/02/09 09:49:47;;;;;;;2.65;1.8;;;;;;;22.48;26.71777;95784.06;;;;
2020/02/09 09:50:47;;;;;;;2.1;1.7;;;;;;;21.67;27.28223;95772.9;;;;
2020/02/09 09:51:49;;;;;;;2.1;1.7;;;;;;;21.67;27.28223;95772.9;;;;
2020/02/09 09:52:50;;;;;;;2.1;1.7;;;;;;;21.67;27.28223;95772.9;;;;
2020/02/09 09:53:50;;;;;;;2.1;1.7;;;;;;;21.03;27.8418;95774.27;;;;
2020/02/09 09:54:51;;;;;;;2.1;1.7;;;;;;;21.03;27.8418;95774.27;;;;
2020/02/09 09:55:51;;;;;;;2.1;1.7;;;;;;;21.03;27.8418;95774.27;;;;